sensor_id;sensor_type;location;lat;lon;timestamp;P1;durP1;ratioP1;P2;durP2;ratioP2
29030;SDS011;16122;50.236;11.734;2023-06-22T00:01:18;16.10;;;14.37;;
29030;SDS011;16122;50.236;11.734;2023-06-22T00:03:45;16.80;;;14.00;;
29030;SDS011;16122;50.236;11.734;2023-06-22T00:06:11;16.57;;;13.67;;
29030;SDS011;16122;50.236;11.734;2023-06-22T00:08:37;16.67;;;12.73;;
29030;SDS011;16122;50.236;11.734;2023-06-22T00:11:03;16.00;;;14.40;;
29030;SDS011;16122;50.236;11.734;2023-06-22T00:13:29;15.90;;;14.30;;
29030;SDS011;16122;50.236;11.734;2023-06-22T00:15:55;14.47;;;13.03;;
29030;SDS011;16122;50.236;11.734;2023-06-22T00:18:21;14.57;;;13.13;;
29030;SDS011;16122;50.236;11.734;2023-06-22T00:20:47;15.03;;;13.53;;
29030;SDS011;16122;50.236;11.734;2023-06-22T00:23:14;15.77;;;14.17;;
29030;SDS011;16122;50.236;11.734;2023-06-22T00:25:41;15.70;;;14.20;;
29030;SDS011;16122;50.236;11.734;2023-06-22T00:28:07;15.47;;;13.97;;
29030;SDS011;16122;50.236;11.734;2023-06-22T00:30:34;15.57;;;14.00;;
29030;SDS011;16122;50.236;11.734;2023-06-22T00:33:01;14.97;;;13.47;;
29030;SDS011;16122;50.236;11.734;2023-06-22T00:35:27;14.70;;;13.40;;
29030;SDS011;16122;50.236;11.734;2023-06-22T00:37:57;13.73;;;12.43;;
29030;SDS011;16122;50.236;11.734;2023-06-22T00:40:29;14.53;;;13.13;;
29030;SDS011;16122;50.236;11.734;2023-06-22T00:42:56;14.33;;;13.03;;
29030;SDS011;16122;50.236;11.734;2023-06-22T00:45:23;13.60;;;12.40;;
29030;SDS011;16122;50.236;11.734;2023-06-22T00:47:50;13.70;;;12.40;;
29030;SDS011;16122;50.236;11.734;2023-06-22T00:50:21;15.23;;;13.80;;
29030;SDS011;16122;50.236;11.734;2023-06-22T00:52:51;15.20;;;13.70;;
29030;SDS011;16122;50.236;11.734;2023-06-22T00:55:19;13.53;;;12.33;;
29030;SDS011;16122;50.236;11.734;2023-06-22T00:57:46;14.40;;;13.13;;
29030;SDS011;16122;50.236;11.734;2023-06-22T01:00:14;13.93;;;12.53;;
29030;SDS011;16122;50.236;11.734;2023-06-22T01:02:45;14.00;;;12.70;;
29030;SDS011;16122;50.236;11.734;2023-06-22T01:05:17;13.40;;;12.10;;
29030;SDS011;16122;50.236;11.734;2023-06-22T01:08:01;13.63;;;12.20;;
29030;SDS011;16122;50.236;11.734;2023-06-22T01:15:51;14.40;;;13.00;;
29030;SDS011;16122;50.236;11.734;2023-06-22T01:18:22;13.80;;;12.50;;
29030;SDS011;16122;50.236;11.734;2023-06-22T01:20:55;13.70;;;12.10;;
29030;SDS011;16122;50.236;11.734;2023-06-22T01:28:48;14.73;;;13.23;;
29030;SDS011;16122;50.236;11.734;2023-06-22T01:31:20;14.73;;;13.37;;
29030;SDS011;16122;50.236;11.734;2023-06-22T01:33:54;13.30;;;12.03;;
29030;SDS011;16122;50.236;11.734;2023-06-22T01:36:23;14.00;;;12.60;;
29030;SDS011;16122;50.236;11.734;2023-06-22T01:38:51;13.70;;;12.30;;
29030;SDS011;16122;50.236;11.734;2023-06-22T01:41:19;13.63;;;11.50;;
29030;SDS011;16122;50.236;11.734;2023-06-22T01:43:46;13.07;;;11.77;;
29030;SDS011;16122;50.236;11.734;2023-06-22T01:46:14;14.93;;;13.50;;
29030;SDS011;16122;50.236;11.734;2023-06-22T01:48:40;14.03;;;12.63;;
29030;SDS011;16122;50.236;11.734;2023-06-22T01:51:06;13.70;;;12.30;;
29030;SDS011;16122;50.236;11.734;2023-06-22T01:53:33;17.47;;;14.47;;
29030;SDS011;16122;50.236;11.734;2023-06-22T01:55:59;12.60;;;11.40;;
29030;SDS011;16122;50.236;11.734;2023-06-22T01:58:28;13.33;;;12.03;;
29030;SDS011;16122;50.236;11.734;2023-06-22T02:01:13;13.37;;;12.17;;
29030;SDS011;16122;50.236;11.734;2023-06-22T02:03:51;14.27;;;12.77;;
29030;SDS011;16122;50.236;11.734;2023-06-22T02:06:39;14.40;;;12.10;;
29030;SDS011;16122;50.236;11.734;2023-06-22T02:09:12;14.30;;;12.20;;
29030;SDS011;16122;50.236;11.734;2023-06-22T02:11:41;14.27;;;12.80;;
29030;SDS011;16122;50.236;11.734;2023-06-22T02:14:09;13.70;;;12.20;;
29030;SDS011;16122;50.236;11.734;2023-06-22T02:16:38;13.87;;;12.67;;
29030;SDS011;16122;50.236;11.734;2023-06-22T02:19:04;13.87;;;12.40;;
29030;SDS011;16122;50.236;11.734;2023-06-22T02:21:33;13.33;;;12.03;;
29030;SDS011;16122;50.236;11.734;2023-06-22T02:23:59;15.13;;;13.10;;
29030;SDS011;16122;50.236;11.734;2023-06-22T02:26:29;15.60;;;13.03;;
29030;SDS011;16122;50.236;11.734;2023-06-22T02:28:55;18.93;;;12.10;;
29030;SDS011;16122;50.236;11.734;2023-06-22T02:31:21;12.57;;;11.30;;
29030;SDS011;16122;50.236;11.734;2023-06-22T02:33:47;12.97;;;11.77;;
29030;SDS011;16122;50.236;11.734;2023-06-22T02:36:17;13.17;;;11.83;;
29030;SDS011;16122;50.236;11.734;2023-06-22T02:38:47;18.43;;;12.43;;
29030;SDS011;16122;50.236;11.734;2023-06-22T02:41:14;13.93;;;12.63;;
29030;SDS011;16122;50.236;11.734;2023-06-22T02:43:44;14.37;;;12.93;;
29030;SDS011;16122;50.236;11.734;2023-06-22T02:46:11;15.37;;;13.77;;
29030;SDS011;16122;50.236;11.734;2023-06-22T02:48:40;13.83;;;12.43;;
29030;SDS011;16122;50.236;11.734;2023-06-22T02:51:07;14.90;;;13.50;;
29030;SDS011;16122;50.236;11.734;2023-06-22T02:53:35;14.07;;;12.63;;
29030;SDS011;16122;50.236;11.734;2023-06-22T02:56:02;15.43;;;12.90;;
29030;SDS011;16122;50.236;11.734;2023-06-22T02:58:34;14.60;;;13.20;;
29030;SDS011;16122;50.236;11.734;2023-06-22T03:01:06;15.00;;;13.50;;
29030;SDS011;16122;50.236;11.734;2023-06-22T03:03:34;13.97;;;12.57;;
29030;SDS011;16122;50.236;11.734;2023-06-22T03:06:01;14.17;;;12.87;;
29030;SDS011;16122;50.236;11.734;2023-06-22T03:08:27;15.10;;;13.60;;
29030;SDS011;16122;50.236;11.734;2023-06-22T03:10:55;14.13;;;12.80;;
29030;SDS011;16122;50.236;11.734;2023-06-22T03:13:21;14.13;;;12.77;;
29030;SDS011;16122;50.236;11.734;2023-06-22T03:15:47;17.43;;;13.50;;
29030;SDS011;16122;50.236;11.734;2023-06-22T03:18:13;13.17;;;11.87;;
29030;SDS011;16122;50.236;11.734;2023-06-22T03:20:41;15.33;;;13.70;;
29030;SDS011;16122;50.236;11.734;2023-06-22T03:23:08;14.57;;;13.13;;
29030;SDS011;16122;50.236;11.734;2023-06-22T03:25:34;14.53;;;13.03;;
29030;SDS011;16122;50.236;11.734;2023-06-22T03:28:01;21.67;;;12.90;;
29030;SDS011;16122;50.236;11.734;2023-06-22T03:30:27;13.57;;;12.17;;
29030;SDS011;16122;50.236;11.734;2023-06-22T03:32:53;13.73;;;12.43;;
29030;SDS011;16122;50.236;11.734;2023-06-22T03:35:19;13.77;;;12.47;;
29030;SDS011;16122;50.236;11.734;2023-06-22T03:37:46;14.30;;;12.87;;
29030;SDS011;16122;50.236;11.734;2023-06-22T03:40:12;14.37;;;12.97;;
29030;SDS011;16122;50.236;11.734;2023-06-22T03:42:39;19.60;;;12.73;;
29030;SDS011;16122;50.236;11.734;2023-06-22T03:45:05;13.63;;;12.23;;
29030;SDS011;16122;50.236;11.734;2023-06-22T03:47:32;13.10;;;11.90;;
29030;SDS011;16122;50.236;11.734;2023-06-22T03:49:58;14.17;;;12.77;;
29030;SDS011;16122;50.236;11.734;2023-06-22T03:52:24;14.63;;;13.07;;
29030;SDS011;16122;50.236;11.734;2023-06-22T03:54:50;13.17;;;11.90;;
29030;SDS011;16122;50.236;11.734;2023-06-22T03:57:16;13.03;;;11.73;;
29030;SDS011;16122;50.236;11.734;2023-06-22T03:59:42;15.20;;;13.03;;
29030;SDS011;16122;50.236;11.734;2023-06-22T04:02:08;14.03;;;12.63;;
29030;SDS011;16122;50.236;11.734;2023-06-22T04:04:34;13.97;;;12.63;;
29030;SDS011;16122;50.236;11.734;2023-06-22T04:07:00;12.33;;;11.20;;
29030;SDS011;16122;50.236;11.734;2023-06-22T04:09:27;12.23;;;11.13;;
29030;SDS011;16122;50.236;11.734;2023-06-22T04:11:53;13.23;;;11.93;;
29030;SDS011;16122;50.236;11.734;2023-06-22T04:14:19;15.30;;;13.10;;
29030;SDS011;16122;50.236;11.734;2023-06-22T04:16:45;13.50;;;12.10;;
29030;SDS011;16122;50.236;11.734;2023-06-22T04:19:11;14.03;;;12.30;;
29030;SDS011;16122;50.236;11.734;2023-06-22T04:21:44;13.23;;;11.93;;
29030;SDS011;16122;50.236;11.734;2023-06-22T04:24:12;13.67;;;12.30;;
29030;SDS011;16122;50.236;11.734;2023-06-22T04:26:38;14.50;;;13.10;;
29030;SDS011;16122;50.236;11.734;2023-06-22T04:29:07;14.57;;;13.00;;
29030;SDS011;16122;50.236;11.734;2023-06-22T04:31:34;14.17;;;12.40;;
29030;SDS011;16122;50.236;11.734;2023-06-22T04:34:04;13.73;;;12.33;;
29030;SDS011;16122;50.236;11.734;2023-06-22T04:36:40;13.30;;;12.10;;
29030;SDS011;16122;50.236;11.734;2023-06-22T04:39:08;14.43;;;12.93;;
29030;SDS011;16122;50.236;11.734;2023-06-22T04:41:38;13.53;;;12.23;;
29030;SDS011;16122;50.236;11.734;2023-06-22T04:44:15;17.93;;;13.20;;
29030;SDS011;16122;50.236;11.734;2023-06-22T04:46:57;14.10;;;12.80;;
29030;SDS011;16122;50.236;11.734;2023-06-22T04:49:34;13.73;;;12.43;;
29030;SDS011;16122;50.236;11.734;2023-06-22T04:52:09;13.80;;;12.50;;
29030;SDS011;16122;50.236;11.734;2023-06-22T04:54:37;15.30;;;12.60;;
29030;SDS011;16122;50.236;11.734;2023-06-22T04:57:05;13.27;;;11.93;;
29030;SDS011;16122;50.236;11.734;2023-06-22T04:59:35;15.67;;;11.80;;
29030;SDS011;16122;50.236;11.734;2023-06-22T05:02:04;12.77;;;11.50;;
29030;SDS011;16122;50.236;11.734;2023-06-22T05:04:34;13.30;;;12.00;;
29030;SDS011;16122;50.236;11.734;2023-06-22T05:07:03;11.70;;;10.60;;
29030;SDS011;16122;50.236;11.734;2023-06-22T05:09:30;13.40;;;11.90;;
29030;SDS011;16122;50.236;11.734;2023-06-22T05:11:56;12.60;;;11.40;;
29030;SDS011;16122;50.236;11.734;2023-06-22T05:14:22;13.13;;;11.90;;
29030;SDS011;16122;50.236;11.734;2023-06-22T05:16:48;12.03;;;10.83;;
29030;SDS011;16122;50.236;11.734;2023-06-22T05:19:17;13.27;;;11.87;;
29030;SDS011;16122;50.236;11.734;2023-06-22T05:21:43;11.10;;;10.00;;
29030;SDS011;16122;50.236;11.734;2023-06-22T05:24:09;11.60;;;10.40;;
29030;SDS011;16122;50.236;11.734;2023-06-22T05:26:35;12.30;;;11.07;;
29030;SDS011;16122;50.236;11.734;2023-06-22T05:29:02;12.07;;;10.80;;
29030;SDS011;16122;50.236;11.734;2023-06-22T05:31:28;12.03;;;10.93;;
29030;SDS011;16122;50.236;11.734;2023-06-22T05:33:55;12.17;;;10.90;;
29030;SDS011;16122;50.236;11.734;2023-06-22T05:36:21;11.73;;;10.57;;
29030;SDS011;16122;50.236;11.734;2023-06-22T05:38:53;11.97;;;10.67;;
29030;SDS011;16122;50.236;11.734;2023-06-22T05:41:22;12.07;;;10.87;;
29030;SDS011;16122;50.236;11.734;2023-06-22T05:43:48;11.17;;;10.07;;
29030;SDS011;16122;50.236;11.734;2023-06-22T05:46:14;11.67;;;10.57;;
29030;SDS011;16122;50.236;11.734;2023-06-22T05:48:40;11.47;;;10.37;;
29030;SDS011;16122;50.236;11.734;2023-06-22T05:51:07;10.90;;;9.73;;
29030;SDS011;16122;50.236;11.734;2023-06-22T05:53:33;13.33;;;10.37;;
29030;SDS011;16122;50.236;11.734;2023-06-22T05:55:59;14.30;;;10.57;;
29030;SDS011;16122;50.236;11.734;2023-06-22T05:58:25;10.87;;;9.83;;
29030;SDS011;16122;50.236;11.734;2023-06-22T06:00:51;11.00;;;9.90;;
29030;SDS011;16122;50.236;11.734;2023-06-22T06:03:17;16.50;;;10.60;;
29030;SDS011;16122;50.236;11.734;2023-06-22T06:05:43;11.77;;;10.23;;
29030;SDS011;16122;50.236;11.734;2023-06-22T06:08:10;10.47;;;9.37;;
29030;SDS011;16122;50.236;11.734;2023-06-22T06:10:37;13.40;;;10.97;;
29030;SDS011;16122;50.236;11.734;2023-06-22T06:13:04;11.90;;;9.77;;
29030;SDS011;16122;50.236;11.734;2023-06-22T06:15:30;11.13;;;9.43;;
29030;SDS011;16122;50.236;11.734;2023-06-22T06:17:57;18.77;;;10.30;;
29030;SDS011;16122;50.236;11.734;2023-06-22T06:20:23;10.47;;;9.47;;
29030;SDS011;16122;50.236;11.734;2023-06-22T06:22:51;15.20;;;10.50;;
29030;SDS011;16122;50.236;11.734;2023-06-22T06:25:17;10.80;;;9.80;;
29030;SDS011;16122;50.236;11.734;2023-06-22T06:27:45;9.43;;;8.30;;
29030;SDS011;16122;50.236;11.734;2023-06-22T06:30:12;11.17;;;10.03;;
29030;SDS011;16122;50.236;11.734;2023-06-22T06:32:41;12.07;;;8.80;;
29030;SDS011;16122;50.236;11.734;2023-06-22T06:35:08;10.30;;;9.30;;
29030;SDS011;16122;50.236;11.734;2023-06-22T06:37:36;11.17;;;9.40;;
29030;SDS011;16122;50.236;11.734;2023-06-22T06:40:03;11.13;;;9.67;;
29030;SDS011;16122;50.236;11.734;2023-06-22T06:42:33;12.50;;;9.90;;
29030;SDS011;16122;50.236;11.734;2023-06-22T06:44:59;10.97;;;9.87;;
29030;SDS011;16122;50.236;11.734;2023-06-22T06:47:25;12.00;;;10.13;;
29030;SDS011;16122;50.236;11.734;2023-06-22T06:49:51;11.33;;;9.87;;
29030;SDS011;16122;50.236;11.734;2023-06-22T06:52:17;10.53;;;9.47;;
29030;SDS011;16122;50.236;11.734;2023-06-22T06:54:44;11.90;;;10.70;;
29030;SDS011;16122;50.236;11.734;2023-06-22T06:57:10;11.13;;;9.80;;
29030;SDS011;16122;50.236;11.734;2023-06-22T06:59:38;11.47;;;9.87;;
29030;SDS011;16122;50.236;11.734;2023-06-22T07:02:04;13.90;;;9.90;;
29030;SDS011;16122;50.236;11.734;2023-06-22T07:04:30;10.73;;;9.73;;
29030;SDS011;16122;50.236;11.734;2023-06-22T07:06:58;10.13;;;9.10;;
29030;SDS011;16122;50.236;11.734;2023-06-22T07:09:26;13.63;;;9.47;;
29030;SDS011;16122;50.236;11.734;2023-06-22T07:11:52;10.10;;;9.10;;
29030;SDS011;16122;50.236;11.734;2023-06-22T07:14:18;11.77;;;10.10;;
29030;SDS011;16122;50.236;11.734;2023-06-22T07:16:44;12.10;;;10.00;;
29030;SDS011;16122;50.236;11.734;2023-06-22T07:19:13;11.37;;;10.23;;
29030;SDS011;16122;50.236;11.734;2023-06-22T07:21:39;10.93;;;9.50;;
29030;SDS011;16122;50.236;11.734;2023-06-22T07:24:06;11.50;;;10.40;;
29030;SDS011;16122;50.236;11.734;2023-06-22T07:26:32;10.03;;;9.03;;
29030;SDS011;16122;50.236;11.734;2023-06-22T07:28:58;11.70;;;10.50;;
29030;SDS011;16122;50.236;11.734;2023-06-22T07:31:25;12.60;;;10.80;;
29030;SDS011;16122;50.236;11.734;2023-06-22T07:33:51;10.47;;;9.37;;
29030;SDS011;16122;50.236;11.734;2023-06-22T07:36:17;11.10;;;10.00;;
29030;SDS011;16122;50.236;11.734;2023-06-22T07:38:43;11.30;;;9.87;;
29030;SDS011;16122;50.236;11.734;2023-06-22T07:41:11;11.93;;;10.57;;
29030;SDS011;16122;50.236;11.734;2023-06-22T07:43:37;13.40;;;9.20;;
29030;SDS011;16122;50.236;11.734;2023-06-22T07:46:03;10.70;;;9.60;;
29030;SDS011;16122;50.236;11.734;2023-06-22T07:48:29;10.33;;;9.33;;
29030;SDS011;16122;50.236;11.734;2023-06-22T07:50:55;11.33;;;10.23;;
29030;SDS011;16122;50.236;11.734;2023-06-22T07:53:22;10.50;;;9.13;;
29030;SDS011;16122;50.236;11.734;2023-06-22T07:55:48;10.80;;;9.80;;
29030;SDS011;16122;50.236;11.734;2023-06-22T07:58:15;10.60;;;9.60;;
29030;SDS011;16122;50.236;11.734;2023-06-22T08:00:44;11.70;;;10.50;;
29030;SDS011;16122;50.236;11.734;2023-06-22T08:03:10;12.67;;;11.20;;
29030;SDS011;16122;50.236;11.734;2023-06-22T08:05:36;11.07;;;9.97;;
29030;SDS011;16122;50.236;11.734;2023-06-22T08:08:02;11.27;;;9.37;;
29030;SDS011;16122;50.236;11.734;2023-06-22T08:10:28;10.77;;;9.77;;
29030;SDS011;16122;50.236;11.734;2023-06-22T08:12:54;11.10;;;10.10;;
29030;SDS011;16122;50.236;11.734;2023-06-22T08:15:20;12.17;;;10.30;;
29030;SDS011;16122;50.236;11.734;2023-06-22T08:17:47;11.00;;;9.90;;
29030;SDS011;16122;50.236;11.734;2023-06-22T08:20:14;11.43;;;9.90;;
29030;SDS011;16122;50.236;11.734;2023-06-22T08:22:40;10.70;;;8.97;;
29030;SDS011;16122;50.236;11.734;2023-06-22T08:25:07;11.50;;;9.40;;
29030;SDS011;16122;50.236;11.734;2023-06-22T08:27:34;10.53;;;9.37;;
29030;SDS011;16122;50.236;11.734;2023-06-22T08:30:01;11.30;;;10.10;;
29030;SDS011;16122;50.236;11.734;2023-06-22T08:32:28;10.90;;;9.80;;
29030;SDS011;16122;50.236;11.734;2023-06-22T08:34:54;10.57;;;9.43;;
29030;SDS011;16122;50.236;11.734;2023-06-22T08:37:21;10.43;;;9.00;;
29030;SDS011;16122;50.236;11.734;2023-06-22T08:39:59;12.50;;;9.87;;
29030;SDS011;16122;50.236;11.734;2023-06-22T08:42:26;10.13;;;8.83;;
29030;SDS011;16122;50.236;11.734;2023-06-22T08:44:52;10.27;;;9.20;;
29030;SDS011;16122;50.236;11.734;2023-06-22T08:47:19;10.37;;;9.37;;
29030;SDS011;16122;50.236;11.734;2023-06-22T08:49:46;9.03;;;8.13;;
29030;SDS011;16122;50.236;11.734;2023-06-22T08:52:12;11.33;;;9.17;;
29030;SDS011;16122;50.236;11.734;2023-06-22T08:54:38;9.67;;;8.77;;
29030;SDS011;16122;50.236;11.734;2023-06-22T08:57:04;11.30;;;10.03;;
29030;SDS011;16122;50.236;11.734;2023-06-22T08:59:31;9.47;;;8.57;;
29030;SDS011;16122;50.236;11.734;2023-06-22T09:01:57;10.40;;;9.40;;
29030;SDS011;16122;50.236;11.734;2023-06-22T09:04:23;11.27;;;9.23;;
29030;SDS011;16122;50.236;11.734;2023-06-22T09:06:50;10.50;;;7.80;;
29030;SDS011;16122;50.236;11.734;2023-06-22T09:09:17;11.00;;;10.00;;
29030;SDS011;16122;50.236;11.734;2023-06-22T09:11:44;9.73;;;8.63;;
29030;SDS011;16122;50.236;11.734;2023-06-22T09:14:10;10.80;;;9.70;;
29030;SDS011;16122;50.236;11.734;2023-06-22T09:16:37;8.53;;;7.73;;
29030;SDS011;16122;50.236;11.734;2023-06-22T09:19:03;10.10;;;9.10;;
29030;SDS011;16122;50.236;11.734;2023-06-22T09:21:30;10.33;;;9.23;;
29030;SDS011;16122;50.236;11.734;2023-06-22T09:23:56;9.60;;;8.70;;
29030;SDS011;16122;50.236;11.734;2023-06-22T09:26:22;10.23;;;9.23;;
29030;SDS011;16122;50.236;11.734;2023-06-22T09:28:49;9.67;;;8.77;;
29030;SDS011;16122;50.236;11.734;2023-06-22T09:31:15;9.63;;;8.63;;
29030;SDS011;16122;50.236;11.734;2023-06-22T09:33:42;9.97;;;8.97;;
29030;SDS011;16122;50.236;11.734;2023-06-22T09:36:08;10.43;;;9.43;;
29030;SDS011;16122;50.236;11.734;2023-06-22T09:38:37;12.63;;;10.13;;
29030;SDS011;16122;50.236;11.734;2023-06-22T09:41:03;11.73;;;9.83;;
29030;SDS011;16122;50.236;11.734;2023-06-22T09:43:30;11.57;;;10.37;;
29030;SDS011;16122;50.236;11.734;2023-06-22T09:45:57;11.53;;;10.43;;
29030;SDS011;16122;50.236;11.734;2023-06-22T09:48:23;11.10;;;10.00;;
29030;SDS011;16122;50.236;11.734;2023-06-22T09:50:49;11.10;;;10.00;;
29030;SDS011;16122;50.236;11.734;2023-06-22T09:53:15;9.70;;;8.80;;
29030;SDS011;16122;50.236;11.734;2023-06-22T09:55:41;10.60;;;9.60;;
29030;SDS011;16122;50.236;11.734;2023-06-22T09:58:07;11.70;;;10.50;;
29030;SDS011;16122;50.236;11.734;2023-06-22T10:00:33;11.30;;;10.20;;
29030;SDS011;16122;50.236;11.734;2023-06-22T10:02:59;10.70;;;9.20;;
29030;SDS011;16122;50.236;11.734;2023-06-22T10:05:25;11.50;;;10.30;;
29030;SDS011;16122;50.236;11.734;2023-06-22T10:07:51;11.40;;;10.40;;
29030;SDS011;16122;50.236;11.734;2023-06-22T10:10:17;13.20;;;10.27;;
29030;SDS011;16122;50.236;11.734;2023-06-22T10:12:47;11.17;;;10.07;;
29030;SDS011;16122;50.236;11.734;2023-06-22T10:15:20;11.50;;;10.40;;
29030;SDS011;16122;50.236;11.734;2023-06-22T10:17:46;11.60;;;10.40;;
29030;SDS011;16122;50.236;11.734;2023-06-22T10:20:12;10.60;;;9.60;;
29030;SDS011;16122;50.236;11.734;2023-06-22T10:22:43;9.63;;;8.83;;
29030;SDS011;16122;50.236;11.734;2023-06-22T10:25:10;11.20;;;10.00;;
29030;SDS011;16122;50.236;11.734;2023-06-22T10:27:37;11.23;;;9.90;;
29030;SDS011;16122;50.236;11.734;2023-06-22T10:30:09;11.10;;;9.90;;
29030;SDS011;16122;50.236;11.734;2023-06-22T10:32:37;10.27;;;9.37;;
29030;SDS011;16122;50.236;11.734;2023-06-22T10:35:04;10.70;;;9.50;;
29030;SDS011;16122;50.236;11.734;2023-06-22T10:37:30;11.90;;;10.63;;
29030;SDS011;16122;50.236;11.734;2023-06-22T10:39:56;10.00;;;9.10;;
29030;SDS011;16122;50.236;11.734;2023-06-22T10:42:22;11.70;;;10.50;;
29030;SDS011;16122;50.236;11.734;2023-06-22T10:44:48;10.87;;;9.60;;
29030;SDS011;16122;50.236;11.734;2023-06-22T10:47:14;11.37;;;10.17;;
29030;SDS011;16122;50.236;11.734;2023-06-22T10:49:40;10.77;;;9.50;;
29030;SDS011;16122;50.236;11.734;2023-06-22T10:52:06;10.20;;;9.30;;
29030;SDS011;16122;50.236;11.734;2023-06-22T10:54:33;10.10;;;9.10;;
29030;SDS011;16122;50.236;11.734;2023-06-22T10:57:00;10.70;;;9.70;;
29030;SDS011;16122;50.236;11.734;2023-06-22T10:59:27;9.60;;;8.60;;
29030;SDS011;16122;50.236;11.734;2023-06-22T11:01:54;10.50;;;9.43;;
29030;SDS011;16122;50.236;11.734;2023-06-22T11:04:21;9.13;;;8.33;;
29030;SDS011;16122;50.236;11.734;2023-06-22T11:06:47;9.47;;;8.47;;
29030;SDS011;16122;50.236;11.734;2023-06-22T11:09:14;11.90;;;9.00;;
29030;SDS011;16122;50.236;11.734;2023-06-22T11:11:45;12.90;;;8.90;;
29030;SDS011;16122;50.236;11.734;2023-06-22T11:14:12;9.83;;;8.93;;
29030;SDS011;16122;50.236;11.734;2023-06-22T11:16:38;11.23;;;8.93;;
29030;SDS011;16122;50.236;11.734;2023-06-22T11:19:04;9.37;;;8.47;;
29030;SDS011;16122;50.236;11.734;2023-06-22T11:21:30;9.97;;;8.50;;
29030;SDS011;16122;50.236;11.734;2023-06-22T11:23:57;9.63;;;8.70;;
29030;SDS011;16122;50.236;11.734;2023-06-22T11:26:24;9.53;;;8.63;;
29030;SDS011;16122;50.236;11.734;2023-06-22T11:28:52;8.80;;;8.00;;
29030;SDS011;16122;50.236;11.734;2023-06-22T11:31:19;9.50;;;8.67;;
29030;SDS011;16122;50.236;11.734;2023-06-22T11:33:44;8.90;;;8.10;;
29030;SDS011;16122;50.236;11.734;2023-06-22T11:36:13;9.50;;;8.57;;
29030;SDS011;16122;50.236;11.734;2023-06-22T11:38:40;10.63;;;8.40;;
29030;SDS011;16122;50.236;11.734;2023-06-22T11:41:07;8.50;;;7.80;;
29030;SDS011;16122;50.236;11.734;2023-06-22T11:43:34;9.80;;;8.77;;
29030;SDS011;16122;50.236;11.734;2023-06-22T11:46:01;9.93;;;8.90;;
29030;SDS011;16122;50.236;11.734;2023-06-22T11:48:28;9.20;;;8.30;;
29030;SDS011;16122;50.236;11.734;2023-06-22T11:50:54;8.27;;;7.37;;
29030;SDS011;16122;50.236;11.734;2023-06-22T11:53:21;8.93;;;8.23;;
29030;SDS011;16122;50.236;11.734;2023-06-22T11:55:47;8.77;;;7.87;;
29030;SDS011;16122;50.236;11.734;2023-06-22T11:58:14;9.83;;;8.83;;
29030;SDS011;16122;50.236;11.734;2023-06-22T12:00:40;8.70;;;7.80;;
29030;SDS011;16122;50.236;11.734;2023-06-22T12:03:06;8.80;;;8.00;;
29030;SDS011;16122;50.236;11.734;2023-06-22T12:05:33;9.43;;;8.50;;
29030;SDS011;16122;50.236;11.734;2023-06-22T12:07:59;8.73;;;7.93;;
29030;SDS011;16122;50.236;11.734;2023-06-22T12:10:27;9.10;;;8.20;;
29030;SDS011;16122;50.236;11.734;2023-06-22T12:12:54;10.00;;;8.30;;
29030;SDS011;16122;50.236;11.734;2023-06-22T12:15:19;8.50;;;7.70;;
29030;SDS011;16122;50.236;11.734;2023-06-22T12:17:45;11.80;;;8.03;;
29030;SDS011;16122;50.236;11.734;2023-06-22T12:20:13;12.63;;;7.90;;
29030;SDS011;16122;50.236;11.734;2023-06-22T12:22:40;10.97;;;8.37;;
29030;SDS011;16122;50.236;11.734;2023-06-22T12:25:06;8.77;;;7.83;;
29030;SDS011;16122;50.236;11.734;2023-06-22T12:27:32;8.90;;;7.97;;
29030;SDS011;16122;50.236;11.734;2023-06-22T12:29:59;9.13;;;7.23;;
29030;SDS011;16122;50.236;11.734;2023-06-22T12:32:28;12.83;;;8.03;;
29030;SDS011;16122;50.236;11.734;2023-06-22T12:34:54;12.80;;;8.70;;
29030;SDS011;16122;50.236;11.734;2023-06-22T12:37:20;11.07;;;8.40;;
29030;SDS011;16122;50.236;11.734;2023-06-22T12:39:46;9.17;;;8.07;;
29030;SDS011;16122;50.236;11.734;2023-06-22T12:42:12;8.77;;;7.43;;
29030;SDS011;16122;50.236;11.734;2023-06-22T12:44:38;14.50;;;8.23;;
29030;SDS011;16122;50.236;11.734;2023-06-22T12:47:07;9.33;;;7.20;;
29030;SDS011;16122;50.236;11.734;2023-06-22T12:49:34;9.13;;;7.00;;
29030;SDS011;16122;50.236;11.734;2023-06-22T12:52:08;8.20;;;7.17;;
29030;SDS011;16122;50.236;11.734;2023-06-22T12:54:35;10.53;;;6.20;;
29030;SDS011;16122;50.236;11.734;2023-06-22T12:57:01;11.63;;;7.60;;
29030;SDS011;16122;50.236;11.734;2023-06-22T12:59:27;10.53;;;7.30;;
29030;SDS011;16122;50.236;11.734;2023-06-22T13:01:53;9.27;;;7.70;;
29030;SDS011;16122;50.236;11.734;2023-06-22T13:04:19;8.43;;;6.90;;
29030;SDS011;16122;50.236;11.734;2023-06-22T13:06:45;9.83;;;7.37;;
29030;SDS011;16122;50.236;11.734;2023-06-22T13:09:14;10.77;;;7.20;;
29030;SDS011;16122;50.236;11.734;2023-06-22T13:11:40;10.20;;;7.10;;
29030;SDS011;16122;50.236;11.734;2023-06-22T13:14:07;8.07;;;7.23;;
29030;SDS011;16122;50.236;11.734;2023-06-22T13:16:32;9.10;;;6.93;;
29030;SDS011;16122;50.236;11.734;2023-06-22T13:18:58;10.30;;;7.90;;
29030;SDS011;16122;50.236;11.734;2023-06-22T13:21:24;8.60;;;7.70;;
29030;SDS011;16122;50.236;11.734;2023-06-22T13:23:50;8.77;;;7.13;;
29030;SDS011;16122;50.236;11.734;2023-06-22T13:26:16;11.70;;;7.70;;
29030;SDS011;16122;50.236;11.734;2023-06-22T13:28:42;12.03;;;7.30;;
29030;SDS011;16122;50.236;11.734;2023-06-22T13:31:08;11.60;;;8.57;;
29030;SDS011;16122;50.236;11.734;2023-06-22T13:33:33;8.90;;;7.53;;
29030;SDS011;16122;50.236;11.734;2023-06-22T13:35:59;9.90;;;7.60;;
29030;SDS011;16122;50.236;11.734;2023-06-22T13:38:25;11.80;;;8.47;;
29030;SDS011;16122;50.236;11.734;2023-06-22T13:40:52;12.40;;;8.60;;
29030;SDS011;16122;50.236;11.734;2023-06-22T13:43:18;9.97;;;7.73;;
29030;SDS011;16122;50.236;11.734;2023-06-22T13:45:44;9.17;;;7.60;;
29030;SDS011;16122;50.236;11.734;2023-06-22T13:48:10;14.60;;;7.37;;
29030;SDS011;16122;50.236;11.734;2023-06-22T13:50:35;8.80;;;7.63;;
29030;SDS011;16122;50.236;11.734;2023-06-22T13:53:01;10.43;;;8.83;;
29030;SDS011;16122;50.236;11.734;2023-06-22T13:55:27;7.93;;;7.03;;
29030;SDS011;16122;50.236;11.734;2023-06-22T13:57:53;10.43;;;7.80;;
29030;SDS011;16122;50.236;11.734;2023-06-22T14:00:19;9.77;;;7.93;;
29030;SDS011;16122;50.236;11.734;2023-06-22T14:02:45;10.60;;;7.90;;
29030;SDS011;16122;50.236;11.734;2023-06-22T14:05:10;11.50;;;8.57;;
29030;SDS011;16122;50.236;11.734;2023-06-22T14:07:37;16.17;;;8.30;;
29030;SDS011;16122;50.236;11.734;2023-06-22T14:10:03;8.57;;;7.53;;
29030;SDS011;16122;50.236;11.734;2023-06-22T14:12:29;9.97;;;7.80;;
29030;SDS011;16122;50.236;11.734;2023-06-22T14:14:55;11.67;;;8.33;;
29030;SDS011;16122;50.236;11.734;2023-06-22T14:17:22;9.80;;;7.97;;
29030;SDS011;16122;50.236;11.734;2023-06-22T14:19:50;9.57;;;7.60;;
29030;SDS011;16122;50.236;11.734;2023-06-22T14:22:21;10.10;;;8.23;;
29030;SDS011;16122;50.236;11.734;2023-06-22T14:24:47;10.13;;;8.47;;
29030;SDS011;16122;50.236;11.734;2023-06-22T14:27:14;9.77;;;7.73;;
29030;SDS011;16122;50.236;11.734;2023-06-22T14:29:40;10.53;;;8.03;;